Tropical Cyclones
[Index]
Main Index Home Page Stock Weather Photos Extreme Storms Discussion Storm News and Storm Chasing Reports Tropical Cyclones / Hurricanes / Typhoons Weather Data and Links Wild Fires / Bushfires Weather Observation Techniques Weather Picture Catalogue Tornado Pictures and Reports Stock Video Footage and DVDs for sale
Season 2019-2020 Tropical Cyclone BLAKE Track Map
Season 2019-2020 Summaries: [BoM-AU]
<<- Previous TC | BoM 2019-2020 Season | Next TC ->>

click for intensity scale information  Lat/long Grid: Show Hide

 Date Labels: Show Hide

Bureau of Meteorology Tropical Cyclone Data

Name: BLAKE

04 Jan 2020 00:00 UTC to 08 Jan 2020 06:00 UTC

    date/time    lat    long    hPa   cat  kts
2020-01-04 00   13.8   122.2   1005         15          
2020-01-04 06   13.9   122.1   1000         20          
2020-01-04 12   14.0   122.0   1000         25          
2020-01-04 18   15.0   121.5    998         25          
2020-01-05 00   16.0   121.0   1000         25          
2020-01-05 06   15.7   121.1    998         30          
2020-01-05 12   15.5   121.2    996         30          
2020-01-05 18   15.8   121.5    993    1    35          
2020-01-06 00   16.0   122.0    993    1    40          
2020-01-06 06   16.8   122.3    991    1    40          
2020-01-06 09   17.2   122.3    992    1    40          
2020-01-06 12   17.4   122.4    993    1    40          
2020-01-06 18   17.7   122.1    991    1    35          
2020-01-07 00   18.1   121.6    989    1    40          
2020-01-07 06   18.8   121.1    990    1    40          
2020-01-07 12   19.4   121.0    986    1    40          
2020-01-07 15   19.8   120.8    986    1    40          
2020-01-07 18   20.0   120.5    993    1    30          
2020-01-08 00   20.1   119.7    994    1    30          
2020-01-08 06   20.3   119.5    994    1    30          
Winds are 10-min average.

Tropical cyclone tracks developed by Michael Bath using data from the Bureau of Meteorology and Google Maps.


[Australian Severe Weather index] [Copyright Notice] [Email Contacts] [Search This Site] [Privacy Policy]
Document: tropical_cyclone_blake.htm Updated: 11 May 2020